Share

Acarigua, Venezuela

3:09 PM VET on April 23, 2014 (GMT -0430)
Barquisimeto (SVBM) Elev 2041 ft | 10.04 °N, 69.36 °W | Change Station

Current weather conditions updated 39 minutes ago

Mostly Cloudy
Mostly Cloudy
88 °F
Feels Like 90 °F
N
15
Wind Variable Wind from ESE
Sunrise 5:53 AM
Sunset 6:17 PM
Moon Waning Crescent

Today is forecast to be nearly the same temperature as yesterday. .

Pressure 29.95 in
Visibility 6.2 miles
Clouds Mostly Cloudy 1600 ft
Heat Index 90 °F
Dew Point 66 °F
Humidity 49%
Rainfall 0.00 in
Snow Depth Not available.
UV 7 out of 16
Pollen Not available.
Air Quality Not available.
Flu Activity Not available.
METAR SVBM 231900Z 11013KT 9999 BKN016 31/19 Q1014

More Conditions Fewer Conditions

Pressure 29.95 in
Visibility 6.2 miles
Clouds Mostly Cloudy 1600 ft
Heat Index 90 °F
Dew Point 66 °F
Humidity 49%
Rainfall 0.00 in
Snow Depth Not available.
UV 7 out of 16
Pollen Not available.
Air Quality Not available.
Flu Activity Not available.
METAR SVBM 231900Z 11013KT 9999 BKN016 31/19 Q1014

More Conditions Fewer Conditions

10-Day Weather Forecast

Almanac

Astronomy

Apr. 23, 2014 Rise Set
Actual Time 5:53 AM VET 6:17 PM VET
Civil Twilight 5:31 AM VET 6:38 PM VET
Nautical Twilight 5:06 AM VET 7:04 PM VET
Astronomical Twilight 4:41 AM VET 7:29 PM VET
Moon 1:14 AM VET 1:25 PM VET
Length of Visible Light 13h 07m
Length of Day
12h 24m
Tomorrow will be 0m 29s longer.
Waning Crescent, 33% of the Moon is Illuminated
Today
Waning Crescent
Apr 29
New
May 6
First Quarter
May 14
Full
May 21
Last Quarter

Today's Extremes

Country Highs Country Lows

Community

  • Stunning Sunrise
    Stunning Sunrise
  • spring flowers
    spring flowers
  • Earth Day Spectrum Ove' Blue
    Earth Day Spectrum Ove' Blue
  • BARN B&W
    BARN B&W
  • April Sunset
    April Sunset

WunderPhotos

Upload Photos

1,704,389 photos uploaded!

WunderBlogs® & News

Nearby

Snow Depth

Not available.

Coastal Water Temperatures

Place Temperature
No Stations Reporting

Earthquake Activity

City Distance Mag. Time & Date
No recent earthquake activity has been reported nearby.
Minimum magnitude displayed is 2.5.

Nearby Weather Stations

There are no personal weather stations in this area.

What do you think?

We're not finished. Please let us know what you like, what you don't like, and what you are still missing.